createdAt,value
2019-06-26T00:02:11.395Z,95.50
2019-06-26T00:04:41.787Z,95.60
2019-06-26T00:07:12.191Z,95.80
2019-06-26T00:09:42.608Z,95.70
2019-06-26T00:12:13.133Z,95.70
2019-06-26T00:14:43.519Z,95.90
2019-06-26T00:17:13.926Z,95.90
2019-06-26T00:19:44.319Z,96.00
2019-06-26T00:22:14.721Z,96.10
2019-06-26T00:24:45.155Z,96.60
2019-06-26T00:27:15.723Z,96.20
2019-06-26T00:29:46.172Z,96.40
2019-06-26T00:32:16.586Z,96.40
2019-06-26T00:34:46.969Z,96.40
2019-06-26T00:37:17.405Z,96.30
2019-06-26T00:39:47.772Z,96.40
2019-06-26T00:42:18.183Z,96.50
2019-06-26T00:44:48.579Z,96.50
2019-06-26T00:47:19.006Z,96.20
2019-06-26T00:49:49.374Z,96.30
2019-06-26T00:52:19.866Z,96.20
2019-06-26T00:54:50.265Z,96.20
2019-06-26T00:57:20.662Z,96.30
2019-06-26T00:59:51.052Z,96.30
2019-06-26T01:02:21.845Z,96.20
2019-06-26T01:04:53.869Z,96.50
2019-06-26T01:07:24.388Z,96.40
2019-06-26T01:09:54.783Z,96.50
2019-06-26T01:12:25.448Z,96.60
2019-06-26T01:14:56.918Z,96.70
2019-06-26T01:17:27.317Z,96.70
2019-06-26T01:19:57.676Z,96.60
2019-06-26T01:22:28.086Z,96.60
2019-06-26T01:24:58.468Z,96.90
2019-06-26T01:27:28.931Z,96.90
2019-06-26T01:29:59.318Z,97.20
2019-06-26T01:32:29.719Z,96.90
2019-06-26T01:35:00.115Z,97.30
2019-06-26T01:37:30.543Z,97.40
2019-06-26T01:40:00.940Z,97.50
2019-06-26T01:42:31.319Z,97.60
2019-06-26T01:45:01.721Z,97.60
2019-06-26T01:47:32.105Z,97.60
2019-06-26T01:50:02.568Z,97.50
2019-06-26T01:52:32.981Z,97.50
2019-06-26T01:55:04.225Z,97.60
2019-06-26T01:57:34.625Z,97.60
2019-06-26T02:00:10.957Z,97.90
2019-06-26T02:02:41.368Z,98.00
2019-06-26T02:05:11.959Z,98.20
2019-06-26T02:07:42.441Z,98.30
2019-06-26T02:10:13.156Z,98.20
2019-06-26T02:12:43.549Z,98.60
2019-06-26T02:15:14.445Z,98.40
2019-06-26T02:17:44.843Z,98.70
2019-06-26T02:20:15.408Z,98.80
2019-06-26T02:22:49.343Z,98.50
2019-06-26T02:25:18.151Z,98.40
2019-06-26T02:27:48.529Z,98.60
2019-06-26T02:30:18.989Z,98.80
2019-06-26T02:32:49.400Z,98.60
2019-06-26T02:35:19.951Z,98.90
2019-06-26T02:37:50.347Z,99.00
2019-06-26T02:40:20.935Z,99.10
2019-06-26T02:42:51.340Z,99.20
2019-06-26T02:45:21.743Z,99.20
2019-06-26T02:47:52.113Z,99.40
2019-06-26T02:50:22.506Z,99.40
2019-06-26T02:52:52.882Z,99.40
2019-06-26T02:55:23.267Z,99.20
2019-06-26T02:57:53.673Z,99.60
2019-06-26T03:00:24.509Z,99.40
2019-06-26T03:02:54.906Z,99.40
2019-06-26T03:05:25.285Z,99.40
2019-06-26T03:07:55.712Z,99.60
2019-06-26T03:10:27.429Z,99.60
2019-06-26T03:12:57.748Z,99.70
2019-06-26T03:15:28.127Z,99.60
2019-06-26T03:17:58.552Z,99.50
2019-06-26T03:20:33.538Z,99.70
2019-06-26T03:23:04.116Z,99.50
2019-06-26T03:25:35.469Z,99.40
2019-06-26T03:28:05.862Z,99.50
2019-06-26T03:30:36.252Z,99.60
2019-06-26T03:33:06.633Z,99.60
2019-06-26T03:35:40.617Z,99.50
2019-06-26T03:38:09.173Z,99.60
2019-06-26T03:40:39.552Z,99.60
2019-06-26T03:43:09.933Z,99.50
2019-06-26T03:45:40.310Z,99.50
2019-06-26T03:48:10.896Z,99.50
2019-06-26T03:50:41.418Z,99.50
2019-06-26T03:53:11.814Z,99.40
2019-06-26T03:55:42.831Z,99.50
2019-06-26T03:58:13.163Z,99.40
2019-06-26T04:00:44.356Z,99.40
2019-06-26T04:03:14.830Z,99.40
2019-06-26T04:05:45.284Z,99.40
2019-06-26T04:08:15.670Z,99.30
2019-06-26T04:10:46.055Z,99.50
2019-06-26T04:13:16.448Z,99.40
2019-06-26T04:15:46.825Z,99.40
2019-06-26T04:18:17.283Z,99.30
2019-06-26T04:20:47.736Z,99.30
2019-06-26T04:23:19.201Z,99.20
2019-06-26T04:25:49.574Z,99.00
2019-06-26T04:28:19.978Z,98.90
2019-06-26T04:30:50.356Z,98.80
2019-06-26T04:33:20.860Z,98.50
2019-06-26T04:35:51.232Z,98.30
2019-06-26T04:38:21.620Z,98.40
2019-06-26T04:40:52.005Z,98.40
2019-06-26T04:43:22.389Z,98.40
2019-06-26T04:45:58.086Z,98.40
2019-06-26T04:48:24.863Z,98.70
2019-06-26T04:50:55.250Z,98.30
2019-06-26T04:53:25.637Z,98.30
2019-06-26T04:55:56.018Z,98.40
2019-06-26T04:58:26.465Z,98.60
2019-06-26T05:00:56.841Z,98.60
2019-06-26T05:03:27.244Z,98.40
2019-06-26T05:05:57.614Z,98.30
2019-06-26T05:08:28.024Z,98.60
2019-06-26T05:10:58.439Z,97.90
2019-06-26T05:13:28.790Z,97.80
2019-06-26T05:16:13.777Z,97.80
2019-06-26T05:18:31.291Z,97.80
2019-06-26T05:21:03.746Z,97.50
2019-06-26T05:23:35.213Z,97.60
2019-06-26T05:26:05.582Z,97.40
2019-06-26T05:28:35.977Z,97.40
2019-06-26T05:31:06.346Z,97.30
2019-06-26T05:33:37.025Z,97.20
2019-06-26T05:36:07.396Z,97.40
2019-06-26T05:38:37.806Z,97.10
2019-06-26T05:41:08.192Z,97.00
2019-06-26T05:43:38.600Z,97.00
2019-06-26T05:46:09.059Z,97.10
2019-06-26T05:48:39.456Z,97.00
2019-06-26T05:51:09.823Z,97.10
2019-06-26T05:53:40.231Z,97.00
2019-06-26T05:56:12.138Z,97.10
2019-06-26T05:58:42.510Z,97.00
2019-06-26T06:01:12.883Z,97.00
2019-06-26T06:03:43.287Z,96.90
2019-06-26T06:06:13.725Z,96.90
2019-06-26T06:08:44.136Z,96.70
2019-06-26T06:11:14.503Z,96.80
2019-06-26T06:13:44.915Z,96.80
2019-06-26T06:16:15.306Z,96.70
2019-06-26T06:18:45.765Z,96.90
2019-06-26T06:21:16.151Z,96.80
2019-06-26T06:23:46.659Z,96.60
2019-06-26T06:26:17.042Z,96.70
2019-06-26T06:28:47.664Z,96.70
2019-06-26T06:31:18.045Z,96.60
2019-06-26T06:33:48.449Z,96.60
2019-06-26T06:36:18.969Z,96.60
2019-06-26T06:38:49.363Z,96.40
2019-06-26T06:41:19.737Z,96.40
2019-06-26T06:43:50.132Z,96.50
2019-06-26T06:46:20.491Z,96.40
2019-06-26T06:48:50.869Z,96.40
2019-06-26T06:51:21.248Z,96.40
2019-06-26T06:53:51.616Z,96.50
2019-06-26T06:56:22.006Z,96.60
2019-06-26T06:58:52.389Z,96.60
2019-06-26T07:01:22.829Z,96.50
2019-06-26T07:03:53.209Z,96.50
2019-06-26T07:06:23.622Z,96.50
2019-06-26T07:08:53.994Z,96.40
2019-06-26T07:11:24.409Z,96.40
2019-06-26T07:13:54.786Z,96.50
2019-06-26T07:16:25.180Z,96.50
2019-06-26T07:18:55.623Z,96.40
2019-06-26T07:21:26.668Z,96.40
2019-06-26T07:23:57.342Z,96.40
2019-06-26T07:26:27.753Z,96.60
2019-06-26T07:28:58.155Z,96.20
2019-06-26T07:31:28.527Z,96.10
2019-06-26T07:33:58.908Z,95.90
2019-06-26T07:36:29.336Z,96.10
2019-06-26T07:38:59.758Z,95.90
2019-06-26T07:41:30.164Z,95.80
2019-06-26T07:44:00.540Z,95.70
2019-06-26T07:46:30.942Z,95.70
2019-06-26T07:49:01.705Z,95.60
2019-06-26T07:51:32.073Z,95.50
2019-06-26T07:54:02.449Z,95.30
2019-06-26T07:56:32.852Z,95.30
2019-06-26T07:59:04.780Z,95.20
2019-06-26T08:01:35.176Z,95.30
2019-06-26T08:04:05.546Z,95.60
2019-06-26T08:06:36.016Z,95.20
2019-06-26T08:09:08.059Z,95.20
2019-06-26T08:11:38.465Z,95.20
2019-06-26T08:14:08.843Z,95.00
2019-06-26T08:16:39.280Z,94.90
2019-06-26T08:19:09.695Z,94.70
2019-06-26T08:21:40.189Z,94.60
2019-06-26T08:24:10.555Z,94.60
2019-06-26T08:26:40.959Z,94.70
2019-06-26T08:29:11.338Z,94.70
2019-06-26T08:31:41.739Z,94.40
2019-06-26T08:34:12.116Z,94.40
2019-06-26T08:36:42.520Z,94.30
2019-06-26T08:39:12.987Z,94.10
2019-06-26T08:41:43.386Z,94.10
2019-06-26T08:44:13.769Z,93.80
2019-06-26T08:46:44.278Z,93.80
2019-06-26T08:49:25.075Z,93.60
2019-06-26T08:51:47.014Z,93.70
2019-06-26T08:54:17.406Z,93.40
2019-06-26T08:56:47.796Z,93.10
2019-06-26T08:59:18.167Z,93.10
2019-06-26T09:01:48.572Z,93.00
2019-06-26T09:04:19.325Z,92.40
2019-06-26T09:06:49.994Z,93.10
2019-06-26T09:09:20.371Z,92.80
2019-06-26T09:11:50.775Z,92.50
2019-06-26T09:14:21.152Z,92.70
2019-06-26T09:16:51.559Z,92.40
2019-06-26T09:19:22.012Z,92.30
2019-06-26T09:21:52.494Z,91.80
2019-06-26T09:24:23.447Z,91.90
2019-06-26T09:26:53.854Z,91.80
2019-06-26T09:29:24.281Z,92.00
2019-06-26T09:31:54.684Z,91.70
2019-06-26T09:34:25.059Z,91.80
2019-06-26T09:36:55.477Z,91.90
2019-06-26T09:39:25.844Z,92.00
2019-06-26T09:41:56.316Z,91.70
2019-06-26T09:44:26.673Z,92.00
2019-06-26T09:46:57.075Z,91.80
2019-06-26T09:49:27.433Z,91.80
2019-06-26T09:51:57.832Z,91.80
2019-06-26T09:54:28.203Z,91.70
2019-06-26T09:56:58.603Z,91.50
2019-06-26T09:59:28.970Z,91.40
2019-06-26T10:01:59.451Z,91.50
2019-06-26T10:04:30.887Z,91.20
2019-06-26T10:07:01.286Z,91.60
2019-06-26T10:09:31.649Z,91.60
2019-06-26T10:12:02.088Z,91.60
2019-06-26T10:14:46.507Z,91.80
2019-06-26T10:17:04.660Z,92.00
2019-06-26T10:19:35.037Z,92.00
2019-06-26T10:22:05.451Z,91.70
2019-06-26T10:24:35.809Z,92.10
2019-06-26T10:27:06.414Z,92.20
2019-06-26T10:29:36.779Z,92.20
2019-06-26T10:32:07.241Z,92.20
2019-06-26T10:34:37.728Z,92.40
2019-06-26T10:37:09.203Z,92.40
2019-06-26T10:39:39.597Z,92.60
2019-06-26T10:42:09.995Z,92.50
2019-06-26T10:44:40.394Z,92.60
2019-06-26T10:47:10.879Z,92.60
2019-06-26T10:49:41.298Z,92.70
2019-06-26T10:52:11.729Z,92.70
2019-06-26T10:54:44.484Z,92.60
2019-06-26T10:57:14.298Z,92.80
2019-06-26T10:59:44.708Z,93.10
2019-06-26T11:02:16.980Z,93.30
2019-06-26T11:04:47.186Z,93.30
2019-06-26T11:07:18.332Z,93.30
2019-06-26T11:09:48.775Z,93.80
2019-06-26T11:12:19.183Z,93.50
2019-06-26T11:14:49.578Z,93.80
2019-06-26T11:17:20.037Z,93.70
2019-06-26T11:19:50.367Z,93.70
2019-06-26T11:22:20.843Z,93.70
2019-06-26T11:24:51.214Z,93.70
2019-06-26T11:27:21.676Z,93.80
2019-06-26T11:29:52.120Z,93.90
2019-06-26T11:32:22.576Z,93.80
2019-06-26T11:34:52.961Z,93.80
2019-06-26T11:37:23.415Z,93.90
2019-06-26T11:39:54.706Z,93.90
2019-06-26T11:42:25.131Z,93.80
2019-06-26T11:44:55.560Z,93.80
2019-06-26T11:47:27.538Z,94.00
2019-06-26T11:50:00.174Z,93.80
2019-06-26T11:52:30.038Z,93.70
2019-06-26T11:55:03.150Z,93.50
2019-06-26T11:57:34.923Z,93.40
2019-06-26T12:00:12.321Z,93.60
2019-06-26T12:02:42.786Z,93.60
2019-06-26T12:05:15.053Z,93.10
2019-06-26T12:07:45.626Z,93.30
2019-06-26T12:10:17.885Z,93.10
2019-06-26T12:12:48.314Z,93.20
2019-06-26T12:15:20.782Z,93.20
2019-06-26T12:17:51.176Z,93.00
2019-06-26T12:20:21.963Z,93.00
2019-06-26T12:22:52.354Z,92.60
2019-06-26T12:25:22.899Z,91.90
2019-06-26T12:27:53.289Z,91.80
2019-06-26T12:30:23.724Z,91.40
2019-06-26T12:33:02.890Z,91.00
2019-06-26T12:35:28.028Z,90.70
2019-06-26T12:37:58.504Z,86.70
2019-06-26T12:40:31.287Z,88.60
2019-06-26T12:43:01.142Z,88.70
2019-06-26T12:45:31.590Z,88.60
2019-06-26T12:48:01.981Z,88.10
2019-06-26T12:50:35.948Z,87.20
2019-06-26T12:53:04.442Z,87.70
2019-06-26T12:55:34.816Z,87.00
2019-06-26T12:58:13.183Z,85.90
2019-06-26T13:00:37.683Z,85.70
2019-06-26T13:03:08.173Z,86.10
2019-06-26T13:05:38.535Z,84.40
2019-06-26T13:08:08.926Z,84.30
2019-06-26T13:10:49.871Z,84.60
2019-06-26T13:13:12.428Z,84.40
2019-06-26T13:15:42.900Z,84.70
2019-06-26T13:18:13.317Z,85.70
2019-06-26T13:20:52.783Z,85.40
2019-06-26T13:23:15.792Z,85.50
2019-06-26T13:25:46.211Z,85.10
2019-06-26T13:28:16.607Z,85.70
2019-06-26T13:30:47.029Z,85.10
2019-06-26T13:33:17.434Z,85.70
2019-06-26T13:35:47.812Z,86.40
2019-06-26T13:38:18.182Z,86.20
2019-06-26T13:40:48.557Z,86.40
2019-06-26T13:43:19.008Z,84.50
2019-06-26T13:45:49.390Z,85.50
2019-06-26T13:48:19.776Z,86.20
2019-06-26T13:50:50.157Z,86.30
2019-06-26T13:53:21.502Z,86.20
2019-06-26T13:55:51.902Z,86.60
2019-06-26T13:58:23.062Z,86.30
2019-06-26T14:00:53.462Z,86.20
2019-06-26T14:03:23.829Z,86.30
2019-06-26T14:05:54.219Z,86.00
2019-06-26T14:08:24.603Z,85.40
2019-06-26T14:10:54.994Z,86.70
2019-06-26T14:13:25.361Z,85.80
2019-06-26T14:15:55.752Z,85.00
2019-06-26T14:18:26.124Z,86.00
2019-06-26T14:20:56.521Z,86.00
2019-06-26T14:23:26.897Z,86.00
2019-06-26T14:25:57.291Z,86.20
2019-06-26T14:28:28.012Z,84.90
2019-06-26T14:30:58.704Z,85.80
2019-06-26T14:33:30.610Z,85.40
2019-06-26T14:36:06.149Z,86.50
2019-06-26T14:38:39.781Z,85.60
2019-06-26T14:41:10.239Z,86.10
2019-06-26T14:43:40.640Z,86.30
2019-06-26T14:46:11.021Z,86.70
2019-06-26T14:48:41.448Z,86.60
2019-06-26T14:51:11.803Z,85.90
2019-06-26T14:53:42.183Z,86.40
2019-06-26T14:56:13.008Z,86.50
2019-06-26T14:58:43.371Z,86.70
2019-06-26T15:01:13.772Z,85.80
2019-06-26T15:03:44.135Z,86.40
2019-06-26T15:06:16.873Z,86.20
2019-06-26T15:08:46.604Z,85.90
2019-06-26T15:11:16.997Z,85.90
2019-06-26T15:13:47.397Z,86.10
2019-06-26T15:16:17.787Z,85.80
2019-06-26T15:18:48.412Z,86.30
2019-06-26T15:21:18.803Z,85.70
2019-06-26T15:23:49.208Z,86.00
2019-06-26T15:26:19.572Z,85.40
2019-06-26T15:28:49.967Z,85.30
2019-06-26T15:31:20.403Z,85.90
2019-06-26T15:33:51.872Z,85.80
2019-06-26T15:36:22.316Z,85.50
2019-06-26T15:38:52.770Z,85.40
2019-06-26T15:41:23.148Z,86.10
2019-06-26T15:43:53.727Z,85.80
2019-06-26T15:46:24.098Z,86.00
2019-06-26T15:48:54.673Z,85.90
2019-06-26T15:51:25.049Z,86.10
2019-06-26T15:53:55.479Z,86.10
2019-06-26T15:56:25.932Z,86.30
2019-06-26T15:58:56.319Z,85.80
2019-06-26T16:01:26.689Z,84.70
2019-06-26T16:03:57.105Z,84.70
2019-06-26T16:06:27.542Z,84.90
2019-06-26T16:08:57.940Z,85.20
2019-06-26T16:11:29.382Z,85.40
2019-06-26T16:13:59.779Z,84.50
2019-06-26T16:16:30.917Z,84.70
2019-06-26T16:19:02.937Z,85.00
2019-06-26T16:21:33.316Z,86.20
2019-06-26T16:24:08.447Z,86.80
2019-06-26T16:26:40.451Z,86.70
2019-06-26T16:29:10.827Z,85.50
2019-06-26T16:31:41.290Z,85.90
2019-06-26T16:34:11.671Z,86.50
2019-06-26T16:36:42.249Z,85.30
2019-06-26T16:39:12.611Z,86.20
2019-06-26T16:41:42.993Z,87.00
2019-06-26T16:44:13.368Z,87.70
2019-06-26T16:46:43.749Z,88.20
2019-06-26T16:49:18.637Z,88.30
2019-06-26T16:51:49.006Z,87.60
2019-06-26T16:54:19.486Z,88.10
2019-06-26T16:56:49.863Z,88.00
2019-06-26T16:59:20.230Z,88.40
2019-06-26T17:01:50.709Z,88.40
2019-06-26T17:04:21.094Z,88.50
2019-06-26T17:06:51.524Z,88.80
2019-06-26T17:09:21.860Z,89.00
2019-06-26T17:11:52.256Z,89.40
2019-06-26T17:14:22.625Z,89.60
2019-06-26T17:16:52.997Z,89.30
2019-06-26T17:19:24.055Z,90.10
2019-06-26T17:21:54.446Z,90.30
2019-06-26T17:24:24.836Z,90.40
2019-06-26T17:26:55.239Z,90.30
2019-06-26T17:29:25.588Z,90.20
2019-06-26T17:31:55.974Z,90.50
2019-06-26T17:34:27.395Z,90.20
2019-06-26T17:36:57.902Z,90.30
2019-06-26T17:39:28.317Z,90.50
2019-06-26T17:41:58.684Z,90.50
2019-06-26T17:44:29.148Z,90.60
2019-06-26T17:46:59.525Z,90.50
2019-06-26T17:49:29.924Z,90.70
2019-06-26T17:52:00.299Z,90.50
2019-06-26T17:54:30.681Z,90.40
2019-06-26T17:57:01.133Z,90.70
2019-06-26T17:59:31.510Z,90.80
2019-06-26T18:02:01.934Z,91.00
2019-06-26T18:04:32.328Z,91.00
2019-06-26T18:07:02.702Z,91.00
2019-06-26T18:09:33.100Z,91.00
2019-06-26T18:12:03.505Z,91.20
2019-06-26T18:14:33.895Z,91.10
2019-06-26T18:17:20.917Z,91.20
2019-06-26T18:19:36.378Z,91.20
2019-06-26T18:22:06.758Z,91.30
2019-06-26T18:24:37.152Z,91.50
2019-06-26T18:27:07.594Z,91.50
2019-06-26T18:29:38.139Z,91.60
2019-06-26T18:32:08.427Z,91.80
2019-06-26T18:34:38.814Z,91.90
2019-06-26T18:37:09.179Z,92.10
2019-06-26T18:39:39.585Z,92.20
2019-06-26T18:42:09.989Z,92.30
2019-06-26T18:44:40.359Z,92.20
2019-06-26T18:47:10.722Z,92.30
2019-06-26T18:49:41.295Z,92.40
2019-06-26T18:52:11.661Z,92.50
2019-06-26T18:54:42.054Z,92.50
2019-06-26T18:57:13.496Z,92.60
2019-06-26T18:59:43.888Z,92.60
2019-06-26T19:02:14.271Z,92.70
2019-06-26T19:04:44.666Z,92.80
2019-06-26T19:07:15.049Z,92.80
2019-06-26T19:09:45.508Z,92.90
2019-06-26T19:12:15.875Z,92.90
2019-06-26T19:14:46.341Z,92.90
2019-06-26T19:17:16.726Z,93.00
2019-06-26T19:19:47.106Z,92.90
2019-06-26T19:22:17.483Z,92.80
2019-06-26T19:24:47.879Z,92.90
2019-06-26T19:27:18.244Z,92.90
2019-06-26T19:29:48.648Z,93.00
2019-06-26T19:32:19.019Z,93.10
2019-06-26T19:34:49.410Z,93.10
2019-06-26T19:37:19.780Z,93.20
2019-06-26T19:39:51.149Z,93.20
2019-06-26T19:42:21.721Z,93.30
2019-06-26T19:44:52.122Z,93.30
2019-06-26T19:47:22.547Z,93.30
2019-06-26T19:49:52.904Z,93.30
2019-06-26T19:52:23.273Z,93.90
2019-06-26T19:54:53.688Z,93.50
2019-06-26T19:57:24.062Z,93.70
2019-06-26T19:59:54.451Z,93.70
2019-06-26T20:02:24.817Z,93.80
2019-06-26T20:04:55.217Z,93.80
2019-06-26T20:07:25.585Z,93.80
2019-06-26T20:09:55.989Z,94.10
2019-06-26T20:12:26.390Z,94.00
2019-06-26T20:14:56.753Z,94.00
2019-06-26T20:17:27.182Z,94.20
2019-06-26T20:19:57.579Z,94.20
2019-06-26T20:22:27.952Z,94.30
2019-06-26T20:24:58.351Z,94.50
2019-06-26T20:27:28.716Z,94.40
2019-06-26T20:29:59.140Z,94.70
2019-06-26T20:32:29.961Z,94.60
2019-06-26T20:35:00.366Z,94.70
2019-06-26T20:37:30.758Z,94.80
2019-06-26T20:40:02.495Z,94.90
2019-06-26T20:42:33.881Z,94.80
2019-06-26T20:45:05.706Z,94.80
2019-06-26T20:47:36.052Z,94.80
2019-06-26T20:50:08.642Z,94.90
2019-06-26T20:52:39.008Z,94.80
2019-06-26T20:55:09.409Z,94.80
2019-06-26T20:57:39.781Z,94.90
2019-06-26T21:00:10.898Z,94.90
2019-06-26T21:02:41.328Z,95.00
2019-06-26T21:05:11.732Z,94.90
2019-06-26T21:07:42.104Z,94.80
2019-06-26T21:10:13.174Z,94.70
2019-06-26T21:12:43.610Z,94.90
2019-06-26T21:15:14.000Z,94.90
2019-06-26T21:17:44.383Z,94.80
2019-06-26T21:20:14.896Z,94.80
2019-06-26T21:22:45.262Z,94.80
2019-06-26T21:25:18.929Z,94.80
2019-06-26T21:27:47.722Z,95.10
2019-06-26T21:30:18.429Z,94.70
2019-06-26T21:32:48.949Z,94.70
2019-06-26T21:35:19.345Z,94.70
2019-06-26T21:37:49.719Z,94.70
2019-06-26T21:40:20.173Z,94.70
2019-06-26T21:42:50.546Z,94.70
2019-06-26T21:45:21.714Z,94.80
2019-06-26T21:47:52.155Z,94.80
2019-06-26T21:50:22.560Z,95.10
2019-06-26T21:52:53.568Z,94.70
2019-06-26T21:55:34.084Z,94.80
2019-06-26T21:58:15.556Z,94.90
2019-06-26T22:01:03.828Z,94.90
2019-06-26T22:03:52.278Z,94.90
2019-06-26T22:06:24.278Z,94.80
2019-06-26T22:08:59.319Z,94.80
2019-06-26T22:11:29.908Z,94.70
2019-06-26T22:14:00.296Z,94.70
2019-06-26T22:16:30.787Z,94.70
2019-06-26T22:19:01.169Z,94.70
2019-06-26T22:21:31.577Z,94.60
2019-06-26T22:24:02.100Z,94.60
2019-06-26T22:26:32.522Z,94.60
2019-06-26T22:29:02.900Z,94.80
2019-06-26T22:31:33.363Z,94.70
2019-06-26T22:34:03.755Z,94.70
2019-06-26T22:36:34.153Z,94.70
2019-06-26T22:39:05.395Z,94.70
2019-06-26T22:41:35.937Z,94.60
2019-06-26T22:44:06.379Z,94.70
2019-06-26T22:46:36.799Z,94.70
2019-06-26T22:49:07.166Z,94.80
2019-06-26T22:51:37.569Z,94.80
2019-06-26T22:54:07.934Z,94.80
2019-06-26T22:56:38.321Z,94.70
2019-06-26T22:59:08.692Z,94.70
2019-06-26T23:01:39.112Z,94.80
2019-06-26T23:04:09.492Z,94.90
2019-06-26T23:06:39.900Z,94.90
2019-06-26T23:09:10.279Z,95.00
2019-06-26T23:11:40.668Z,94.90
2019-06-26T23:14:11.047Z,94.90
2019-06-26T23:16:41.435Z,94.90
2019-06-26T23:19:14.812Z,94.90
2019-06-26T23:21:43.924Z,95.30
2019-06-26T23:24:14.308Z,94.90
2019-06-26T23:26:44.691Z,94.80
2019-06-26T23:29:15.067Z,94.80
2019-06-26T23:31:45.465Z,94.80
2019-06-26T23:34:15.984Z,94.80
2019-06-26T23:36:46.393Z,94.70
2019-06-26T23:39:16.831Z,94.70
2019-06-26T23:41:47.479Z,94.70
2019-06-26T23:44:17.866Z,94.70
2019-06-26T23:46:48.245Z,94.60
2019-06-26T23:49:18.619Z,94.60
2019-06-26T23:51:49.098Z,94.60
2019-06-26T23:54:19.466Z,94.60
2019-06-26T23:56:50.005Z,94.60
2019-06-26T23:59:20.378Z,94.60
